createdAt,value
2023-03-08T00:01:39.162Z,25.49
2023-03-08T00:03:39.222Z,25.50
2023-03-08T00:05:39.115Z,25.52
2023-03-08T00:07:39.177Z,25.49
2023-03-08T00:09:39.184Z,25.53
2023-03-08T00:11:39.189Z,25.52
2023-03-08T00:13:38.688Z,25.45
2023-03-08T00:15:39.155Z,25.49
2023-03-08T00:17:39.190Z,25.44
2023-03-08T00:19:39.170Z,25.43
2023-03-08T00:21:39.404Z,25.46
2023-03-08T00:23:39.153Z,25.52
2023-03-08T00:25:39.210Z,25.41
2023-03-08T00:27:39.207Z,25.42
2023-03-08T00:29:39.160Z,25.35
2023-03-08T00:31:39.244Z,25.42
2023-03-08T00:33:39.113Z,25.36
2023-03-08T00:35:39.370Z,25.36
2023-03-08T00:37:39.074Z,25.46
2023-03-08T00:39:39.220Z,25.37
2023-03-08T00:41:39.244Z,25.32
2023-03-08T00:43:39.219Z,25.35
2023-03-08T00:45:39.211Z,25.36
2023-03-08T00:47:39.245Z,25.35
2023-03-08T00:49:39.218Z,25.37
2023-03-08T00:51:39.179Z,25.32
2023-03-08T00:53:39.107Z,25.51
2023-03-08T00:55:39.210Z,25.47
2023-03-08T00:57:39.188Z,25.43
2023-03-08T00:59:39.245Z,25.37
2023-03-08T01:01:39.221Z,25.38
2023-03-08T01:03:39.199Z,25.40
2023-03-08T01:05:39.260Z,25.42
2023-03-08T01:07:39.229Z,25.37
2023-03-08T01:09:39.227Z,25.47
2023-03-08T01:11:39.231Z,25.36
2023-03-08T01:13:39.197Z,25.43
2023-03-08T01:15:39.211Z,25.39
2023-03-08T01:17:39.253Z,25.37
2023-03-08T01:19:41.075Z,25.33
2023-03-08T01:21:39.189Z,25.44
2023-03-08T01:23:41.068Z,25.37
2023-03-08T01:25:39.219Z,25.38
2023-03-08T01:27:39.280Z,25.36
2023-03-08T01:29:39.278Z,25.37
2023-03-08T01:31:39.272Z,25.38
2023-03-08T01:33:39.236Z,25.44
2023-03-08T01:35:39.334Z,25.37
2023-03-08T01:37:40.164Z,25.37
2023-03-08T01:39:39.269Z,25.38
2023-03-08T01:41:39.240Z,25.29
2023-03-08T01:43:39.218Z,25.37
2023-03-08T01:45:39.266Z,25.37
2023-03-08T01:47:39.330Z,25.33
2023-03-08T01:49:39.282Z,25.44
2023-03-08T01:51:39.240Z,25.32
2023-03-08T01:53:39.288Z,25.30
2023-03-08T01:55:39.277Z,25.33
2023-03-08T01:57:39.301Z,25.29
2023-03-08T01:59:39.234Z,25.44
2023-03-08T02:01:39.311Z,25.23
2023-03-08T02:03:39.302Z,25.26
2023-03-08T02:05:39.219Z,25.26
2023-03-08T02:07:39.282Z,25.25
2023-03-08T02:09:39.211Z,25.24
2023-03-08T02:11:39.275Z,25.25
2023-03-08T02:13:39.234Z,25.36
2023-03-08T02:15:39.288Z,25.26
2023-03-08T02:17:39.430Z,25.28
2023-03-08T02:19:39.306Z,25.29
2023-03-08T02:21:39.322Z,25.25
2023-03-08T02:23:39.310Z,25.28
2023-03-08T02:25:39.328Z,25.29
2023-03-08T02:27:39.395Z,25.35
2023-03-08T02:29:39.327Z,25.24
2023-03-08T02:31:39.265Z,25.31
2023-03-08T02:33:39.315Z,25.24
2023-03-08T02:35:39.349Z,25.37
2023-03-08T02:37:39.332Z,25.26
2023-03-08T02:39:39.349Z,25.37
2023-03-08T02:41:39.354Z,25.28
2023-03-08T02:43:39.351Z,25.29
2023-03-08T02:45:39.339Z,25.25
2023-03-08T02:47:39.270Z,25.30
2023-03-08T02:49:39.320Z,25.23
2023-03-08T02:51:39.272Z,25.32
2023-03-08T02:53:39.340Z,25.26
2023-03-08T02:55:39.406Z,25.40
2023-03-08T02:57:39.341Z,25.48
2023-03-08T02:59:39.354Z,25.49
2023-03-08T03:01:39.435Z,24.24
2023-03-08T03:03:39.371Z,24.11
2023-03-08T03:05:39.308Z,24.00
2023-03-08T03:07:39.332Z,23.80
2023-03-08T03:09:39.371Z,23.73
2023-03-08T03:11:39.341Z,23.66
2023-03-08T03:13:39.296Z,23.65
2023-03-08T03:15:39.419Z,23.66
2023-03-08T03:17:39.407Z,23.66
2023-03-08T03:19:39.369Z,23.59
2023-03-08T03:21:39.384Z,23.56
2023-03-08T03:23:39.384Z,23.59
2023-03-08T03:25:39.369Z,23.72
2023-03-08T03:27:39.372Z,23.59
2023-03-08T03:29:39.318Z,23.57
2023-03-08T03:31:39.385Z,23.67
2023-03-08T03:33:39.420Z,23.69
2023-03-08T03:35:39.386Z,23.67
2023-03-08T03:37:39.405Z,23.66
2023-03-08T03:39:39.400Z,23.77
2023-03-08T03:41:39.429Z,23.66
2023-03-08T03:43:39.409Z,23.68
2023-03-08T03:45:39.361Z,23.62
2023-03-08T03:47:39.404Z,23.56
2023-03-08T03:49:39.402Z,23.59
2023-03-08T03:51:39.339Z,23.61
2023-03-08T03:53:39.404Z,23.61
2023-03-08T03:55:39.361Z,23.65
2023-03-08T03:57:39.409Z,23.72
2023-03-08T03:59:39.442Z,23.59
2023-03-08T04:01:39.390Z,23.72
2023-03-08T04:03:39.479Z,23.57
2023-03-08T04:05:39.432Z,23.59
2023-03-08T04:07:39.406Z,23.59
2023-03-08T04:09:39.447Z,23.56
2023-03-08T04:11:39.434Z,23.54
2023-03-08T04:13:39.426Z,23.59
2023-03-08T04:15:39.465Z,23.57
2023-03-08T04:17:39.412Z,23.57
2023-03-08T04:19:39.441Z,23.59
2023-03-08T04:21:39.435Z,23.65
2023-03-08T04:23:39.469Z,23.62
2023-03-08T04:25:39.453Z,23.55
2023-03-08T04:27:39.427Z,23.54
2023-03-08T04:29:39.446Z,23.53
2023-03-08T04:31:39.569Z,23.42
2023-03-08T04:33:39.393Z,23.45
2023-03-08T04:35:39.499Z,23.41
2023-03-08T04:37:39.458Z,23.40
2023-03-08T04:39:39.489Z,23.45
2023-03-08T04:41:39.464Z,23.29
2023-03-08T04:43:39.386Z,23.34
2023-03-08T04:45:39.418Z,23.33
2023-03-08T04:47:39.452Z,23.35
2023-03-08T04:49:39.536Z,23.38
2023-03-08T04:51:39.459Z,23.44
2023-03-08T04:53:39.479Z,23.27
2023-03-08T04:55:39.494Z,23.31
2023-03-08T04:57:39.467Z,23.36
2023-03-08T04:59:39.471Z,23.30
2023-03-08T05:01:39.422Z,23.10
2023-03-08T05:03:39.493Z,23.05
2023-03-08T05:05:39.484Z,23.02
2023-03-08T05:07:39.495Z,23.10
2023-03-08T05:09:39.507Z,22.87
2023-03-08T05:11:39.521Z,23.01
2023-03-08T05:13:39.538Z,22.96
2023-03-08T05:15:39.518Z,23.01
2023-03-08T05:17:39.495Z,22.96
2023-03-08T05:19:39.445Z,22.96
2023-03-08T05:21:39.508Z,23.05
2023-03-08T05:23:39.511Z,22.97
2023-03-08T05:25:39.525Z,23.04
2023-03-08T05:27:39.518Z,22.91
2023-03-08T05:29:39.512Z,22.96
2023-03-08T05:31:39.559Z,23.25
2023-03-08T05:33:39.558Z,23.24
2023-03-08T05:35:39.546Z,23.25
2023-03-08T05:37:39.521Z,23.11
2023-03-08T05:39:39.471Z,23.13
2023-03-08T05:41:39.524Z,23.24
2023-03-08T05:43:39.524Z,23.16
2023-03-08T05:45:39.654Z,23.13
2023-03-08T05:47:39.536Z,23.15
2023-03-08T05:49:39.512Z,23.15
2023-03-08T05:51:39.545Z,23.10
2023-03-08T05:53:39.377Z,23.16
2023-03-08T05:55:39.463Z,23.06
2023-03-08T05:57:39.492Z,23.00
2023-03-08T05:59:39.528Z,23.01
2023-03-08T06:01:39.548Z,23.05
2023-03-08T06:03:39.679Z,23.06
2023-03-08T06:05:39.564Z,22.99
2023-03-08T06:07:39.527Z,23.15
2023-03-08T06:09:39.539Z,23.04
2023-03-08T06:11:39.542Z,23.05
2023-03-08T06:13:39.576Z,23.03
2023-03-08T06:15:39.543Z,23.05
2023-03-08T06:17:39.523Z,23.12
2023-03-08T06:19:39.536Z,23.20
2023-03-08T06:21:39.526Z,23.11
2023-03-08T06:23:39.517Z,23.11
2023-03-08T06:25:39.501Z,23.11
2023-03-08T06:27:39.584Z,23.05
2023-03-08T06:29:39.555Z,23.13
2023-03-08T06:31:39.581Z,23.11
2023-03-08T06:33:39.543Z,23.04
2023-03-08T06:35:39.626Z,23.11
2023-03-08T06:37:39.584Z,23.15
2023-03-08T06:39:39.593Z,23.12
2023-03-08T06:41:39.553Z,23.14
2023-03-08T06:43:39.507Z,23.16
2023-03-08T06:45:39.639Z,23.11
2023-03-08T06:47:39.551Z,23.25
2023-03-08T06:49:39.604Z,23.24
2023-03-08T06:51:39.590Z,23.11
2023-03-08T06:53:39.115Z,23.17
2023-03-08T06:55:39.596Z,23.15
2023-03-08T06:57:39.632Z,23.11
2023-03-08T06:59:39.573Z,23.09
2023-03-08T07:01:39.644Z,23.05
2023-03-08T07:03:39.618Z,23.10
2023-03-08T07:05:39.579Z,23.12
2023-03-08T07:07:39.617Z,23.15
2023-03-08T07:09:39.583Z,23.18
2023-03-08T07:11:39.648Z,23.08
2023-03-08T07:13:39.587Z,23.11
2023-03-08T07:15:39.652Z,23.16
2023-03-08T07:17:39.620Z,23.11
2023-03-08T07:19:39.602Z,23.11
2023-03-08T07:21:39.620Z,23.10
2023-03-08T07:23:39.618Z,23.07
2023-03-08T07:25:39.633Z,23.10
2023-03-08T07:27:39.612Z,23.13
2023-03-08T07:29:39.650Z,23.08
2023-03-08T07:31:39.638Z,23.02
2023-03-08T07:33:39.660Z,22.97
2023-03-08T07:35:40.104Z,22.97
2023-03-08T07:37:39.628Z,23.01
2023-03-08T07:39:39.632Z,23.01
2023-03-08T07:41:39.620Z,23.02
2023-03-08T07:43:39.627Z,23.12
2023-03-08T07:45:39.626Z,23.09
2023-03-08T07:47:39.635Z,23.02
2023-03-08T07:49:39.574Z,22.99
2023-03-08T07:51:39.683Z,23.11
2023-03-08T07:53:39.699Z,23.13
2023-03-08T07:55:39.676Z,23.11
2023-03-08T07:57:39.582Z,23.11
2023-03-08T07:59:39.724Z,23.12
2023-03-08T08:01:39.678Z,23.12
2023-03-08T08:03:39.760Z,23.11
2023-03-08T08:05:39.818Z,23.12
2023-03-08T08:07:39.672Z,23.10
2023-03-08T08:09:39.682Z,23.17
2023-03-08T08:11:39.679Z,23.08
2023-03-08T08:13:39.617Z,23.10
2023-03-08T08:15:39.612Z,23.06
2023-03-08T08:17:39.676Z,23.17
2023-03-08T08:19:39.661Z,23.25
2023-03-08T08:21:39.803Z,23.16
2023-03-08T08:23:39.712Z,23.17
2023-03-08T08:25:39.682Z,23.22
2023-03-08T08:27:39.711Z,23.19
2023-03-08T08:29:39.692Z,23.20
2023-03-08T08:31:39.830Z,23.20
2023-03-08T08:33:39.674Z,23.22
2023-03-08T08:35:43.487Z,23.25
2023-03-08T08:37:39.688Z,23.26
2023-03-08T08:39:39.735Z,23.24
2023-03-08T08:41:39.685Z,23.20
2023-03-08T08:43:39.668Z,23.25
2023-03-08T08:45:39.693Z,23.25
2023-03-08T08:47:39.666Z,23.25
2023-03-08T08:49:39.697Z,23.25
2023-03-08T08:51:39.684Z,23.17
2023-03-08T08:53:39.711Z,23.30
2023-03-08T08:55:41.582Z,23.20
2023-03-08T08:57:39.669Z,23.23
2023-03-08T08:59:39.717Z,23.23
2023-03-08T09:01:39.759Z,23.22
2023-03-08T09:03:39.748Z,23.24
2023-03-08T09:05:39.733Z,23.20
2023-03-08T09:07:39.676Z,23.23
2023-03-08T09:09:39.719Z,23.18
2023-03-08T09:11:53.352Z,23.01
2023-03-08T09:13:39.747Z,23.18
2023-03-08T09:15:39.725Z,23.13
2023-03-08T09:17:39.685Z,23.15
2023-03-08T09:19:39.766Z,23.13
2023-03-08T09:21:39.702Z,23.19
2023-03-08T09:23:39.748Z,23.25
2023-03-08T09:25:39.748Z,23.19
2023-03-08T09:27:39.705Z,23.20
2023-03-08T09:29:39.778Z,23.25
2023-03-08T09:31:39.815Z,23.27
2023-03-08T09:33:39.808Z,23.13
2023-03-08T09:35:39.850Z,23.19
2023-03-08T09:37:39.785Z,23.25
2023-03-08T09:39:39.761Z,23.24
2023-03-08T09:41:39.808Z,23.21
2023-03-08T09:43:39.798Z,23.26
2023-03-08T09:45:39.799Z,23.24
2023-03-08T09:47:39.867Z,23.24
2023-03-08T09:49:39.771Z,23.25
2023-03-08T09:51:39.798Z,23.22
2023-03-08T09:53:39.781Z,23.26
2023-03-08T09:55:39.802Z,23.29
2023-03-08T09:57:41.620Z,23.30
2023-03-08T09:59:39.779Z,23.22
2023-03-08T10:01:39.785Z,23.22
2023-03-08T10:03:39.780Z,23.24
2023-03-08T10:05:39.786Z,23.25
2023-03-08T10:07:39.775Z,23.24
2023-03-08T10:09:39.774Z,23.26
2023-03-08T10:11:39.804Z,23.25
2023-03-08T10:13:39.732Z,23.26
2023-03-08T10:15:40.781Z,23.25
2023-03-08T10:17:39.805Z,23.22
2023-03-08T10:19:39.804Z,23.24
2023-03-08T10:21:39.799Z,23.25
2023-03-08T10:23:39.817Z,23.25
2023-03-08T10:25:39.744Z,23.25
2023-03-08T10:27:39.778Z,23.26
2023-03-08T10:29:39.809Z,23.22
2023-03-08T10:31:39.809Z,23.15
2023-03-08T10:33:39.793Z,23.21
2023-03-08T10:35:39.822Z,23.19
2023-03-08T10:37:39.836Z,23.18
2023-03-08T10:39:39.870Z,23.25
2023-03-08T10:41:39.725Z,23.25
2023-03-08T10:43:39.795Z,23.22
2023-03-08T10:45:39.876Z,23.19
2023-03-08T10:47:39.826Z,23.11
2023-03-08T10:49:39.877Z,23.20
2023-03-08T10:51:39.821Z,23.25
2023-03-08T10:53:39.852Z,23.23
2023-03-08T10:55:39.863Z,23.20
2023-03-08T10:57:39.893Z,23.20
2023-03-08T10:59:39.869Z,23.23
2023-03-08T11:01:39.859Z,23.08
2023-03-08T11:03:39.878Z,23.15
2023-03-08T11:05:39.869Z,23.10
2023-03-08T11:07:39.850Z,23.08
2023-03-08T11:09:39.868Z,23.06
2023-03-08T11:11:39.874Z,23.03
2023-03-08T11:13:39.869Z,23.01
2023-03-08T11:15:39.869Z,22.98
2023-03-08T11:17:39.852Z,23.10
2023-03-08T11:19:39.887Z,23.08
2023-03-08T11:21:39.886Z,23.07
2023-03-08T11:23:40.085Z,23.10
2023-03-08T11:25:39.879Z,23.11
2023-03-08T11:27:39.959Z,22.98
2023-03-08T11:29:39.916Z,22.99
2023-03-08T11:31:39.918Z,23.19
2023-03-08T11:33:40.011Z,23.12
2023-03-08T11:35:39.928Z,23.13
2023-03-08T11:37:39.896Z,23.16
2023-03-08T11:39:39.906Z,23.24
2023-03-08T11:41:39.872Z,23.20
2023-03-08T11:43:39.881Z,23.23
2023-03-08T11:45:39.907Z,23.18
2023-03-08T11:47:39.927Z,23.26
2023-03-08T11:49:39.838Z,23.26
2023-03-08T11:51:39.879Z,23.27
2023-03-08T11:53:40.612Z,23.25
2023-03-08T11:55:39.844Z,23.23
2023-03-08T11:57:39.930Z,23.23
2023-03-08T11:59:39.932Z,23.30
2023-03-08T12:01:39.909Z,23.30
2023-03-08T12:03:40.027Z,23.24
2023-03-08T12:05:39.910Z,23.25
2023-03-08T12:07:39.890Z,23.29
2023-03-08T12:09:39.907Z,23.36
2023-03-08T12:11:39.941Z,23.40
2023-03-08T12:13:39.870Z,23.39
2023-03-08T12:15:40.035Z,23.31
2023-03-08T12:17:40.164Z,23.34
2023-03-08T12:19:39.916Z,23.25
2023-03-08T12:21:39.951Z,23.34
2023-03-08T12:23:39.917Z,23.37
2023-03-08T12:25:39.946Z,23.36
2023-03-08T12:27:39.983Z,23.37
2023-03-08T12:29:39.963Z,23.33
2023-03-08T12:31:40.100Z,23.34
2023-03-08T12:33:40.021Z,23.25
2023-03-08T12:35:40.091Z,23.25
2023-03-08T12:37:39.946Z,23.39
2023-03-08T12:39:40.021Z,23.38
2023-03-08T12:41:39.969Z,23.49
2023-03-08T12:43:39.977Z,23.50
2023-03-08T12:45:40.032Z,23.41
2023-03-08T12:47:40.019Z,23.43
2023-03-08T12:49:40.011Z,23.42
2023-03-08T12:51:40.020Z,23.57
2023-03-08T12:53:40.082Z,23.54
2023-03-08T12:55:39.937Z,23.55
2023-03-08T12:57:39.930Z,23.54
2023-03-08T12:59:39.960Z,23.53
2023-03-08T13:01:39.990Z,23.58
2023-03-08T13:03:39.995Z,23.61
2023-03-08T13:05:39.948Z,23.68
2023-03-08T13:07:39.984Z,23.70
2023-03-08T13:09:39.954Z,23.73
2023-03-08T13:11:39.968Z,23.81
2023-03-08T13:13:40.060Z,23.73
2023-03-08T13:15:39.491Z,23.81
2023-03-08T13:17:40.020Z,23.72
2023-03-08T13:19:40.027Z,23.70
2023-03-08T13:21:40.098Z,23.61
2023-03-08T13:23:40.037Z,23.54
2023-03-08T13:25:40.044Z,23.53
2023-03-08T13:27:40.084Z,23.50
2023-03-08T13:29:39.985Z,23.53
2023-03-08T13:31:40.014Z,23.58
2023-03-08T13:33:39.952Z,23.50
2023-03-08T13:35:40.449Z,23.52
2023-03-08T13:37:40.115Z,23.49
2023-03-08T13:39:40.036Z,23.41
2023-03-08T13:41:40.035Z,23.35
2023-03-08T13:43:40.053Z,23.26
2023-03-08T13:45:40.038Z,23.44
2023-03-08T13:47:40.048Z,23.27
2023-03-08T13:49:39.987Z,23.28
2023-03-08T13:51:40.095Z,23.38
2023-03-08T13:53:40.099Z,23.41
2023-03-08T13:55:40.058Z,23.34
2023-03-08T13:57:40.174Z,23.38
2023-03-08T13:59:40.050Z,23.29
2023-03-08T14:01:40.128Z,23.24
2023-03-08T14:03:40.130Z,23.29
2023-03-08T14:05:40.193Z,23.26
2023-03-08T14:07:40.093Z,22.94
2023-03-08T14:09:39.538Z,23.25
2023-03-08T14:11:40.061Z,23.20
2023-03-08T14:13:39.975Z,23.22
2023-03-08T14:15:40.255Z,23.23
2023-03-08T14:17:40.002Z,23.20
2023-03-08T14:19:40.257Z,23.26
2023-03-08T14:21:40.037Z,23.25
2023-03-08T14:23:40.090Z,23.26
2023-03-08T14:25:40.072Z,23.22
2023-03-08T14:27:40.073Z,23.14
2023-03-08T14:29:40.083Z,23.15
2023-03-08T14:31:40.198Z,23.18
2023-03-08T14:33:42.467Z,23.11
2023-03-08T14:35:40.156Z,23.10
2023-03-08T14:37:40.095Z,23.10
2023-03-08T14:39:40.040Z,23.13
2023-03-08T14:41:40.095Z,23.11
2023-03-08T14:43:40.093Z,23.01
2023-03-08T14:45:40.045Z,23.19
2023-03-08T14:47:40.331Z,23.13
2023-03-08T14:49:40.121Z,23.15
2023-03-08T14:51:41.407Z,23.13
2023-03-08T14:53:40.068Z,23.24
2023-03-08T14:55:40.067Z,23.18
2023-03-08T14:57:40.089Z,23.25
2023-03-08T14:59:40.094Z,23.25
2023-03-08T15:01:40.168Z,23.20
2023-03-08T15:03:40.397Z,23.15
2023-03-08T15:05:40.108Z,23.26
2023-03-08T15:07:40.190Z,23.15
2023-03-08T15:09:40.103Z,23.14
2023-03-08T15:11:40.119Z,23.13
2023-03-08T15:13:40.140Z,23.17
2023-03-08T15:15:40.163Z,23.18
2023-03-08T15:17:40.132Z,23.17
2023-03-08T15:19:40.107Z,23.08
2023-03-08T15:21:40.121Z,23.13
2023-03-08T15:23:40.146Z,23.03
2023-03-08T15:25:40.132Z,22.98
2023-03-08T15:27:40.248Z,23.06
2023-03-08T15:29:40.095Z,23.02
2023-03-08T15:31:40.114Z,23.10
2023-03-08T15:33:40.126Z,23.06
2023-03-08T15:35:40.216Z,23.12
2023-03-08T15:37:40.123Z,23.02
2023-03-08T15:39:40.129Z,23.05
2023-03-08T15:41:40.156Z,23.12
2023-03-08T15:43:40.111Z,23.11
2023-03-08T15:45:40.159Z,23.10
2023-03-08T15:47:40.168Z,23.06
2023-03-08T15:49:40.232Z,23.09
2023-03-08T15:51:40.138Z,23.10
2023-03-08T15:53:40.300Z,23.10
2023-03-08T15:55:40.104Z,23.11
2023-03-08T15:57:40.138Z,23.10
2023-03-08T15:59:40.169Z,23.10
2023-03-08T16:01:40.210Z,22.99
2023-03-08T16:03:40.280Z,23.03
2023-03-08T16:05:40.122Z,22.99
2023-03-08T16:07:40.146Z,23.02
2023-03-08T16:09:40.289Z,23.01
2023-03-08T16:11:40.221Z,22.98
2023-03-08T16:13:40.258Z,22.97
2023-03-08T16:15:40.500Z,23.09
2023-03-08T16:17:40.163Z,22.98
2023-03-08T16:19:40.167Z,22.98
2023-03-08T16:21:40.192Z,23.02
2023-03-08T16:23:40.210Z,22.97
2023-03-08T16:25:40.220Z,23.02
2023-03-08T16:27:40.231Z,22.96
2023-03-08T16:29:40.149Z,22.99
2023-03-08T16:31:40.194Z,22.95
2023-03-08T16:33:40.280Z,23.04
2023-03-08T16:35:40.170Z,23.01
2023-03-08T16:37:40.157Z,23.09
2023-03-08T16:39:40.201Z,23.01
2023-03-08T16:41:40.155Z,23.06
2023-03-08T16:45:38.668Z,22.99
2023-03-08T16:45:40.374Z,23.08
2023-03-08T16:47:40.225Z,23.08
2023-03-08T16:49:40.190Z,23.04
2023-03-08T16:51:40.309Z,22.96
2023-03-08T16:53:40.224Z,23.02
2023-03-08T16:55:40.242Z,23.03
2023-03-08T16:57:40.190Z,23.03
2023-03-08T16:59:40.221Z,23.06
2023-03-08T17:01:40.259Z,23.03
2023-03-08T17:03:40.302Z,23.05
2023-03-08T17:05:40.215Z,23.03
2023-03-08T17:07:40.312Z,23.11
2023-03-08T17:09:40.245Z,23.00
2023-03-08T17:11:40.218Z,22.96
2023-03-08T17:13:40.198Z,23.01
2023-03-08T17:15:40.213Z,23.08
2023-03-08T17:17:40.296Z,23.03
2023-03-08T17:19:41.135Z,23.01
2023-03-08T17:21:40.208Z,23.02
2023-03-08T17:23:40.262Z,23.08
2023-03-08T17:25:41.233Z,22.96
2023-03-08T17:27:40.309Z,22.99
2023-03-08T17:29:40.249Z,22.97
2023-03-08T17:31:41.060Z,22.95
2023-03-08T17:33:40.245Z,22.94
2023-03-08T17:35:40.399Z,22.94
2023-03-08T17:37:40.720Z,22.97
2023-03-08T17:39:40.280Z,23.03
2023-03-08T17:41:40.296Z,23.10
2023-03-08T17:43:41.283Z,22.95
2023-03-08T17:45:40.240Z,23.05
2023-03-08T17:47:41.354Z,23.03
2023-03-08T17:49:40.992Z,23.03
2023-03-08T17:51:40.278Z,23.09
2023-03-08T17:53:40.283Z,23.03
2023-03-08T17:55:40.932Z,23.04
2023-03-08T17:57:40.280Z,22.88
2023-03-08T17:59:40.285Z,23.03
2023-03-08T18:01:40.790Z,22.99
2023-03-08T18:03:40.319Z,23.03
2023-03-08T18:05:40.290Z,23.02
2023-03-08T18:07:41.756Z,23.02
2023-03-08T18:09:40.323Z,22.98
2023-03-08T18:11:40.248Z,22.99
2023-03-08T18:13:40.927Z,22.99
2023-03-08T18:15:40.350Z,22.97
2023-03-08T18:17:40.276Z,23.05
2023-03-08T18:19:40.268Z,23.04
2023-03-08T18:21:41.450Z,23.00
2023-03-08T18:23:40.324Z,23.00
2023-03-08T18:25:40.329Z,22.97
2023-03-08T18:27:40.354Z,23.10
2023-03-08T18:29:40.292Z,23.17
2023-03-08T18:31:40.306Z,22.96
2023-03-08T18:33:40.341Z,23.06
2023-03-08T18:35:40.390Z,23.03
2023-03-08T18:37:40.314Z,23.01
2023-03-08T18:39:40.343Z,23.02
2023-03-08T18:41:40.352Z,22.98
2023-03-08T18:43:40.985Z,22.96
2023-03-08T18:45:40.308Z,23.03
2023-03-08T18:47:40.346Z,23.10
2023-03-08T18:49:40.329Z,22.96
2023-03-08T18:51:40.334Z,22.97
2023-03-08T18:53:40.393Z,22.96
2023-03-08T18:55:40.333Z,23.01
2023-03-08T18:57:40.350Z,22.99
2023-03-08T18:59:40.254Z,22.97
2023-03-08T19:01:40.500Z,25.31
2023-03-08T19:03:40.381Z,26.13
2023-03-08T19:05:40.342Z,26.39
2023-03-08T19:07:40.410Z,26.38
2023-03-08T19:09:40.412Z,26.43
2023-03-08T19:11:40.310Z,26.51
2023-03-08T19:13:40.328Z,26.29
2023-03-08T19:15:40.344Z,26.67
2023-03-08T19:17:40.366Z,26.79
2023-03-08T19:19:40.369Z,26.53
2023-03-08T19:21:40.320Z,26.61
2023-03-08T19:23:40.374Z,26.70
2023-03-08T19:25:40.357Z,26.55
2023-03-08T19:27:40.299Z,26.96
2023-03-08T19:29:40.361Z,26.68
2023-03-08T19:31:40.468Z,26.67
2023-03-08T19:33:40.398Z,26.80
2023-03-08T19:35:40.298Z,26.65
2023-03-08T19:37:40.440Z,26.65
2023-03-08T19:39:40.325Z,26.70
2023-03-08T19:41:40.429Z,26.85
2023-03-08T19:43:40.577Z,26.68
2023-03-08T19:45:40.450Z,27.14
2023-03-08T19:47:40.393Z,26.61
2023-03-08T19:49:40.379Z,27.02
2023-03-08T19:51:40.401Z,26.79
2023-03-08T19:53:40.455Z,26.57
2023-03-08T19:55:39.899Z,26.48
2023-03-08T19:57:40.446Z,26.53
2023-03-08T19:59:40.408Z,26.85
2023-03-08T20:01:40.489Z,26.65
2023-03-08T20:03:40.458Z,26.69
2023-03-08T20:05:40.484Z,26.50
2023-03-08T20:07:40.473Z,26.55
2023-03-08T20:09:40.410Z,26.46
2023-03-08T20:11:40.434Z,26.45
2023-03-08T20:13:40.448Z,26.46
2023-03-08T20:15:40.452Z,26.56
2023-03-08T20:17:40.674Z,26.61
2023-03-08T20:19:40.417Z,26.38
2023-03-08T20:21:40.460Z,26.50
2023-03-08T20:23:40.461Z,26.42
2023-03-08T20:25:40.466Z,26.30
2023-03-08T20:27:40.487Z,26.41
2023-03-08T20:29:40.469Z,26.42
2023-03-08T20:31:40.545Z,26.45
2023-03-08T20:33:40.520Z,26.30
2023-03-08T20:35:40.516Z,26.34
2023-03-08T20:37:40.473Z,26.27
2023-03-08T20:39:40.404Z,26.46
2023-03-08T20:41:40.534Z,26.39
2023-03-08T20:43:40.435Z,26.42
2023-03-08T20:45:40.553Z,26.40
2023-03-08T20:47:40.465Z,26.50
2023-03-08T20:49:40.412Z,26.50
2023-03-08T20:51:40.502Z,26.63
2023-03-08T20:53:40.484Z,24.89
2023-03-08T20:55:40.484Z,25.19
2023-03-08T20:57:40.516Z,25.25
2023-03-08T20:59:40.495Z,24.94
2023-03-08T21:01:40.483Z,25.00
2023-03-08T21:03:40.470Z,25.23
2023-03-08T21:05:40.556Z,24.95
2023-03-08T21:07:40.487Z,24.99
2023-03-08T21:09:40.502Z,25.21
2023-03-08T21:11:40.475Z,24.90
2023-03-08T21:13:40.505Z,25.26
2023-03-08T21:15:40.615Z,25.22
2023-03-08T21:17:40.450Z,25.05
2023-03-08T21:19:40.504Z,25.05
2023-03-08T21:21:40.483Z,25.22
2023-03-08T21:23:40.509Z,25.20
2023-03-08T21:25:40.496Z,25.22
2023-03-08T21:27:40.493Z,25.38
2023-03-08T21:29:40.533Z,25.23
2023-03-08T21:31:40.483Z,25.24
2023-03-08T21:33:40.502Z,25.01
2023-03-08T21:35:40.573Z,25.17
2023-03-08T21:37:40.477Z,25.18
2023-03-08T21:39:40.515Z,25.09
2023-03-08T21:41:40.342Z,25.29
2023-03-08T21:43:40.509Z,25.21
2023-03-08T21:45:40.464Z,25.13
2023-03-08T21:47:40.476Z,25.09
2023-03-08T21:49:40.520Z,24.93
2023-03-08T21:51:40.523Z,24.84
2023-03-08T21:53:40.469Z,24.95
2023-03-08T21:55:40.553Z,25.09
2023-03-08T21:57:40.483Z,24.93
2023-03-08T21:59:40.549Z,24.93
2023-03-08T22:01:40.638Z,24.87
2023-03-08T22:03:40.526Z,24.95
2023-03-08T22:05:40.531Z,25.06
2023-03-08T22:07:40.564Z,24.83
2023-03-08T22:09:40.559Z,24.90
2023-03-08T22:11:40.552Z,24.93
2023-03-08T22:13:40.563Z,25.00
2023-03-08T22:15:40.524Z,24.95
2023-03-08T22:17:40.559Z,24.97
2023-03-08T22:19:40.532Z,24.96
2023-03-08T22:21:40.554Z,25.38
2023-03-08T22:23:40.488Z,25.33
2023-03-08T22:25:40.586Z,25.08
2023-03-08T22:27:40.576Z,25.00
2023-03-08T22:29:40.578Z,25.06
2023-03-08T22:31:40.571Z,24.93
2023-03-08T22:33:40.578Z,24.87
2023-03-08T22:35:40.595Z,25.12
2023-03-08T22:37:40.559Z,25.07
2023-03-08T22:39:40.551Z,25.00
2023-03-08T22:41:40.597Z,24.93
2023-03-08T22:43:40.629Z,25.18
2023-03-08T22:45:40.634Z,24.97
2023-03-08T22:47:40.624Z,24.92
2023-03-08T22:49:40.601Z,24.96
2023-03-08T22:51:40.588Z,24.98
2023-03-08T22:53:40.609Z,24.80
2023-03-08T22:55:40.673Z,24.98
2023-03-08T22:57:40.598Z,25.01
2023-03-08T22:59:40.589Z,24.79
2023-03-08T23:01:40.639Z,24.66
2023-03-08T23:03:40.567Z,24.65
2023-03-08T23:05:40.599Z,24.67
2023-03-08T23:07:40.607Z,24.71
2023-03-08T23:09:40.629Z,24.68
2023-03-08T23:11:40.696Z,24.66
2023-03-08T23:13:40.668Z,24.74
2023-03-08T23:15:40.676Z,24.86
2023-03-08T23:17:40.111Z,24.73
2023-03-08T23:19:40.641Z,24.82
2023-03-08T23:21:40.661Z,24.69
2023-03-08T23:23:40.592Z,24.85
2023-03-08T23:25:40.700Z,24.91
2023-03-08T23:27:40.714Z,24.73
2023-03-08T23:29:40.568Z,24.83
2023-03-08T23:31:40.717Z,24.82
2023-03-08T23:33:40.638Z,24.85
2023-03-08T23:35:40.742Z,24.84
2023-03-08T23:37:40.657Z,24.85
2023-03-08T23:39:40.633Z,24.80
2023-03-08T23:41:40.650Z,24.83
2023-03-08T23:43:40.634Z,24.85
2023-03-08T23:45:40.702Z,24.76
2023-03-08T23:47:40.641Z,24.79
2023-03-08T23:49:40.655Z,24.80
2023-03-08T23:51:40.640Z,24.66
2023-03-08T23:53:40.631Z,24.71
2023-03-08T23:55:40.661Z,24.66
2023-03-08T23:57:40.666Z,24.73
2023-03-08T23:59:40.670Z,24.66
